Date,TemperatureHighF,TemperatureAvgF,TemperatureLowF,DewpointHighF,DewpointAvgF,DewpointLowF,HumidityHigh,HumidityAvg,HumidityLow,PressureMaxIn,PressureMinIn,WindSpeedMaxMPH,WindSpeedAvgMPH,GustSpeedMaxMPH,PrecipitationSumIn
2013-2-1,33.0,27.7,24.0,-99.9,-99.9,-99.9,0,0,100,0.00,40.00,109,45,0,0.02
2013-2-2,40.0,30.3,23.0,-99.9,-99.9,-99.9,0,0,100,0.00,40.00,90,20,0,0.02
2013-2-3,40.0,33.2,28.0,-99.9,-99.9,-99.9,0,0,100,0.00,40.00,53,-4,0,0.00
2013-2-4,40.0,31.2,26.0,-99.9,-99.9,-99.9,0,0,100,0.00,40.00,68,-84,0,0.01
2013-2-5,43.0,36.0,29.0,-99.9,-99.9,-99.9,0,0,100,0.00,40.00,73,16,0,0.01
2013-2-6,40.0,34.0,23.0,-99.9,-99.9,-99.9,0,0,100,0.00,40.00,84,46,0,0.01
2013-2-7,39.0,27.0,19.0,-99.9,-99.9,-99.9,0,0,100,0.00,40.00,97,-31,0,0.00
2013-2-8,44.0,33.5,26.0,-99.9,-99.9,-99.9,0,0,100,0.00,40.00,70,43,0,0.00
2013-2-9,28.0,23.0,18.0,-99.9,-99.9,-99.9,0,0,100,0.00,40.00,109,94,0,0.00
2013-2-10,20.0,16.4,11.0,-99.9,-99.9,-99.9,0,0,100,0.00,40.00,111,108,0,0.02
2013-2-11,23.0,12.1,2.0,-99.9,-99.9,-99.9,0,0,100,0.00,40.00,109,43,0,0.00
2013-2-12,26.0,16.2,8.0,-99.9,-99.9,-99.9,0,0,100,0.00,40.00,85,28,0,0.01
2013-2-13,31.0,24.0,18.0,-99.9,-99.9,-99.9,0,0,100,0.00,40.00,96,38,0,0.01
2013-2-14,24.0,20.0,14.0,-99.9,-99.9,-99.9,0,0,100,0.00,40.00,110,26,0,0.01
2013-2-15,23.0,19.7,15.0,-99.9,-99.9,-99.9,0,0,100,0.00,40.00,110,98,0,0.01
2013-2-16,42.0,31.6,24.0,-99.9,-99.9,-99.9,0,0,100,0.00,40.00,85,-36,0,0.01
2013-2-17,42.0,32.2,21.0,-99.9,-99.9,-99.9,0,0,100,0.00,40.00,103,10,0,0.01
2013-2-18,25.0,19.3,15.0,-99.9,-99.9,-99.9,0,0,100,0.00,40.00,111,21,0,0.00
2013-2-19,35.0,27.0,18.0,-99.9,-99.9,-99.9,0,0,100,0.00,40.00,94,44,0,0.02
2013-2-20,40.0,28.1,19.0,-99.9,-99.9,-99.9,0,0,100,0.00,40.00,113,16,0,0.01
2013-2-21,23.0,17.8,15.0,-99.9,-99.9,-99.9,0,0,100,0.00,40.00,110,79,0,0.00
2013-2-22,25.0,18.4,15.0,-99.9,-99.9,-99.9,0,0,100,0.00,40.00,102,-11,0,0.01
2013-2-23,31.0,22.4,16.0,-99.9,-99.9,-99.9,0,0,100,0.00,40.00,81,-185,0,0.01
2013-2-24,22.0,18.7,15.0,-99.9,-99.9,-99.9,0,0,100,0.00,40.00,111,-482,0,0.01
2013-2-25,30.0,23.2,12.0,-99.9,-99.9,-99.9,0,0,100,0.00,40.00,107,-83,0,0.01
2013-2-26,23.0,19.3,14.0,-99.9,-99.9,-99.9,0,0,100,0.00,40.00,107,48,0,0.01
2013-2-27,25.0,16.1,10.0,-99.9,-99.9,-99.9,0,0,100,0.00,40.00,108,89,0,0.01
2013-2-28,30.0,21.0,13.0,-99.9,-99.9,-99.9,0,0,100,0.00,40.00,95,-16,0,0.01